Time;durP1;ratioP1;P1;durP2;ratioP2;P2;SDS_P1;SDS_P2;PMS_P1;PMS_P2;Temp;Humidity;BMP_temperature;BMP_pressure;BME280_temperature;BME280_humidity;BME280_pressure;Samples;Min_cycle;Max_cycle;Signal;HPM_P1;HPM_P2
2024/04/23 00:00:48;;;;;;;21.65;19.90;;;-1.40;99.90;;;;;;5350581;26;19995;-71
2024/04/23 00:03:18;;;;;;;23.48;21.23;;;-1.40;99.90;;;;;;5384914;26;20762;-70
2024/04/23 00:05:45;;;;;;;21.23;19.23;;;-1.40;99.90;;;;;;5391146;26;20004;-71
2024/04/23 00:08:12;;;;;;;23.60;20.52;;;-1.40;99.90;;;;;;5403803;26;20008;-71
2024/04/23 00:10:39;;;;;;;23.30;20.83;;;-1.20;99.90;;;;;;5378852;26;20028;-71
2024/04/23 00:13:06;;;;;;;22.02;19.98;;;-1.30;99.90;;;;;;5382359;26;20718;-70
2024/04/23 00:15:33;;;;;;;21.38;19.58;;;-1.40;99.90;;;;;;5379201;26;20411;-71
2024/04/23 00:18:00;;;;;;;22.42;20.40;;;-1.50;99.90;;;;;;5383005;26;20015;-71
2024/04/23 00:20:28;;;;;;;22.73;20.60;;;-1.50;99.90;;;;;;5386120;26;20004;-71
2024/04/23 00:22:55;;;;;;;22.73;20.88;;;-1.50;99.90;;;;;;5376363;26;20008;-71
2024/04/23 00:25:22;;;;;;;24.25;21.98;;;-1.50;99.90;;;;;;5402058;26;20003;-71
2024/04/23 00:27:50;;;;;;;22.88;20.80;;;-1.50;99.90;;;;;;5373296;26;20008;-70
2024/04/23 00:30:17;;;;;;;21.75;19.83;;;-1.50;99.90;;;;;;5380415;26;20004;-71
2024/04/23 00:32:44;;;;;;;22.42;20.52;;;-1.50;99.90;;;;;;5386051;26;20007;-71
2024/04/23 00:35:11;;;;;;;21.00;19.40;;;-1.50;99.90;;;;;;5384733;26;20014;-72
2024/04/23 00:37:38;;;;;;;22.05;20.02;;;-1.50;99.90;;;;;;5383516;26;20022;-71
2024/04/23 00:40:06;;;;;;;21.58;19.88;;;-1.30;99.90;;;;;;5383725;26;20032;-71
2024/04/23 00:42:33;;;;;;;22.02;19.85;;;-1.30;99.90;;;;;;5385927;26;20000;-71
2024/04/23 00:45:00;;;;;;;22.52;20.45;;;-1.30;99.90;;;;;;5380302;26;20003;-72
2024/04/23 00:47:28;;;;;;;21.05;19.33;;;-1.20;99.90;;;;;;5390825;26;20718;-71
2024/04/23 00:49:56;;;;;;;23.60;20.25;;;-1.50;99.90;;;;;;5385435;26;20008;-71
2024/04/23 00:52:23;;;;;;;21.95;19.75;;;-1.50;99.90;;;;;;5384025;26;20015;-72
2024/04/23 00:54:50;;;;;;;21.15;19.38;;;-1.30;99.90;;;;;;5392476;26;20084;-71
2024/04/23 00:57:18;;;;;;;21.58;19.70;;;-1.40;99.90;;;;;;5384141;26;20024;-72
2024/04/23 00:59:45;;;;;;;19.85;18.25;;;-1.50;99.90;;;;;;5384623;26;20027;-71
2024/04/23 01:02:12;;;;;;;20.40;18.58;;;-1.60;99.90;;;;;;5404464;26;20010;-70
2024/04/23 01:04:39;;;;;;;22.67;20.63;;;-1.60;99.90;;;;;;5394295;26;19995;-72
2024/04/23 01:07:06;;;;;;;21.02;19.13;;;-1.60;99.90;;;;;;5394043;26;20000;-71
2024/04/23 01:09:34;;;;;;;21.35;19.25;;;-1.50;99.90;;;;;;5384369;26;20018;-72
2024/04/23 01:12:02;;;;;;;20.83;19.02;;;-1.60;99.90;;;;;;5385724;26;20015;-71
2024/04/23 01:14:31;;;;;;;20.05;18.50;;;-1.60;99.90;;;;;;5350101;26;20000;-72
2024/04/23 01:16:58;;;;;;;21.40;19.40;;;-1.60;99.90;;;;;;5352653;26;20365;-71
2024/04/23 01:19:32;;;;;;;22.63;20.73;;;-1.70;99.90;;;;;;5389895;26;20205;-71
2024/04/23 01:21:59;;;;;;;22.60;20.63;;;-1.70;99.90;;;;;;5381622;26;20029;-72
2024/04/23 01:24:33;;;;;;;21.30;19.63;;;-1.70;99.90;;;;;;5370651;26;20385;-71
2024/04/23 01:27:02;;;;;;;22.38;20.42;;;-1.70;99.90;;;;;;5379794;26;20127;-71
2024/04/23 01:29:30;;;;;;;23.38;21.30;;;-1.80;99.90;;;;;;5348948;26;20010;-72
2024/04/23 01:32:00;;;;;;;21.08;19.27;;;-1.80;99.90;;;;;;5387258;26;21008;-71
2024/04/23 01:34:31;;;;;;;21.95;20.00;;;-1.70;99.90;;;;;;5383350;26;20060;-72
2024/04/23 01:36:59;;;;;;;22.27;20.30;;;-1.70;99.90;;;;;;5383884;26;20011;-70
2024/04/23 01:39:28;;;;;;;21.50;19.70;;;-1.70;99.90;;;;;;5355466;26;20010;-71
2024/04/23 01:41:57;;;;;;;21.33;19.42;;;-1.80;99.90;;;;;;5389808;26;20475;-71
2024/04/23 01:44:25;;;;;;;21.00;19.05;;;-1.70;99.90;;;;;;5370972;26;20778;-70
2024/04/23 01:46:53;;;;;;;21.23;19.30;;;-1.80;99.90;;;;;;5386914;26;19996;-71
2024/04/23 01:49:20;;;;;;;21.00;19.00;;;-1.70;99.90;;;;;;5387189;26;20011;-71
2024/04/23 01:51:48;;;;;;;21.75;18.77;;;-1.50;99.90;;;;;;5391259;26;20272;-71
2024/04/23 01:54:15;;;;;;;18.42;16.83;;;-1.50;99.90;;;;;;5383910;26;20529;-71
2024/04/23 01:56:42;;;;;;;18.33;16.83;;;-1.60;99.90;;;;;;5386220;26;20010;-71
2024/04/23 01:59:16;;;;;;;19.45;17.83;;;-1.60;99.90;;;;;;5384344;26;20507;-71
2024/04/23 02:01:51;;;;;;;20.58;18.38;;;-1.70;99.90;;;;;;5442448;26;20835;-71
2024/04/23 02:04:19;;;;;;;19.20;17.67;;;-1.60;99.90;;;;;;5394636;26;19999;-71
2024/04/23 02:06:47;;;;;;;21.73;19.58;;;-1.70;99.90;;;;;;5393108;26;20047;-72
2024/04/23 02:09:15;;;;;;;21.80;19.50;;;-1.70;99.90;;;;;;5386016;26;20067;-72
2024/04/23 02:11:43;;;;;;;21.05;19.27;;;-1.70;99.90;;;;;;5392557;26;20006;-71
2024/04/23 02:14:10;;;;;;;21.25;19.42;;;-1.90;99.90;;;;;;5385415;26;21530;-72
2024/04/23 02:16:38;;;;;;;20.77;18.77;;;-2.00;99.90;;;;;;5348758;26;19999;-72
2024/04/23 02:19:05;;;;;;;22.98;20.88;;;-2.00;99.90;;;;;;5389578;26;20663;-72
2024/04/23 02:21:32;;;;;;;22.88;20.83;;;-2.00;99.90;;;;;;5407429;26;20010;-72
2024/04/23 02:23:59;;;;;;;21.55;19.63;;;-2.10;99.90;;;;;;5390108;26;20626;-72
2024/04/23 02:26:27;;;;;;;22.35;20.30;;;-2.00;99.90;;;;;;5392445;26;20007;-71
2024/04/23 02:28:54;;;;;;;22.08;20.17;;;-2.00;99.90;;;;;;5358351;26;20004;-72
2024/04/23 02:31:21;;;;;;;23.20;21.10;;;-1.90;99.90;;;;;;5391785;26;20008;-70
2024/04/23 02:33:48;;;;;;;23.00;20.95;;;-1.80;99.90;;;;;;5358806;26;20583;-70
2024/04/23 02:36:15;;;;;;;24.38;20.08;;;-2.00;99.90;;;;;;5391439;26;20407;-71
2024/04/23 02:38:42;;;;;;;21.60;19.75;;;-2.10;99.90;;;;;;5380153;26;20723;-72
2024/04/23 02:41:09;;;;;;;22.58;20.38;;;-2.00;99.90;;;;;;5384154;26;20010;-72
2024/04/23 02:43:55;;;;;;;21.67;19.45;;;-1.90;99.90;;;;;;5396646;26;20014;-72
2024/04/23 02:46:22;;;;;;;22.13;20.08;;;-2.00;99.90;;;;;;5381131;26;20478;-70
2024/04/23 02:48:49;;;;;;;21.52;19.60;;;-2.10;99.90;;;;;;5386295;26;20000;-71
2024/04/23 02:51:16;;;;;;;24.10;20.98;;;-2.10;99.90;;;;;;5381232;26;20011;-72
2024/04/23 02:53:43;;;;;;;22.73;20.67;;;-2.10;99.90;;;;;;5387473;26;20097;-72
2024/04/23 02:56:17;;;;;;;22.35;20.48;;;-2.10;99.90;;;;;;5395783;26;20017;-71
2024/04/23 02:58:44;;;;;;;22.60;20.67;;;-2.10;99.90;;;;;;5383200;26;20004;-72
2024/04/23 03:01:12;;;;;;;22.33;20.23;;;-2.10;99.90;;;;;;5386978;26;20770;-71
2024/04/23 03:03:38;;;;;;;24.33;21.88;;;-2.10;99.90;;;;;;5394196;26;20672;-72
2024/04/23 03:06:06;;;;;;;23.00;20.95;;;-2.10;99.90;;;;;;5394918;26;20003;-71
2024/04/23 03:08:33;;;;;;;25.35;22.70;;;-2.20;99.90;;;;;;5385724;26;20003;-71
2024/04/23 03:11:02;;;;;;;23.77;21.67;;;-2.30;99.90;;;;;;5397216;26;20043;-71
2024/04/23 03:13:29;;;;;;;23.52;21.35;;;-2.30;99.90;;;;;;5409582;26;20010;-70
2024/04/23 03:15:56;;;;;;;24.67;22.25;;;-2.40;99.90;;;;;;5409182;26;20014;-71
2024/04/23 03:18:23;;;;;;;23.80;21.50;;;-2.20;99.90;;;;;;5396253;26;20652;-71
2024/04/23 03:20:51;;;;;;;24.05;21.55;;;-2.10;99.90;;;;;;5389231;26;20003;-70
2024/04/23 03:23:17;;;;;;;21.88;19.80;;;-2.00;99.90;;;;;;5383629;26;20018;-71
2024/04/23 03:25:45;;;;;;;22.27;20.15;;;-2.00;99.90;;;;;;5389053;26;20657;-72
2024/04/23 03:28:12;;;;;;;22.85;20.63;;;-2.00;99.90;;;;;;5381765;26;20004;-72
2024/04/23 03:30:39;;;;;;;23.77;21.45;;;-2.10;99.90;;;;;;5381504;26;19995;-71
2024/04/23 03:33:06;;;;;;;23.73;21.38;;;-2.20;99.90;;;;;;5391234;26;20007;-72
2024/04/23 03:35:33;;;;;;;23.15;21.02;;;-2.20;99.90;;;;;;5382988;26;20085;-71
2024/04/23 03:38:01;;;;;;;24.17;21.35;;;-2.30;99.90;;;;;;5387999;26;20032;-70
2024/04/23 03:40:28;;;;;;;24.92;21.88;;;-2.40;99.90;;;;;;5378676;26;20031;-71
2024/04/23 03:42:55;;;;;;;24.52;22.00;;;-2.30;99.90;;;;;;5387923;26;20447;-72
2024/04/23 03:45:22;;;;;;;24.50;22.20;;;-2.30;99.90;;;;;;5373979;26;20655;-72
2024/04/23 03:47:50;;;;;;;25.05;22.42;;;-2.30;99.90;;;;;;5378382;26;20099;-71
2024/04/23 03:50:17;;;;;;;27.95;22.10;;;-2.40;99.90;;;;;;5382905;26;20015;-72
2024/04/23 03:52:44;;;;;;;22.88;20.83;;;-2.50;99.90;;;;;;5375073;26;20026;-71
2024/04/23 03:55:11;;;;;;;24.52;21.88;;;-2.30;99.90;;;;;;5387194;26;20934;-71
2024/04/23 03:57:38;;;;;;;23.73;21.42;;;-2.20;99.90;;;;;;5351828;26;20007;-71
2024/04/23 04:00:06;;;;;;;23.83;21.42;;;-2.20;99.90;;;;;;5390485;26;20000;-72
2024/04/23 04:08:05;;;;;;;24.98;22.75;;;-2.20;99.90;;;;;;5381779;26;20080;-71
2024/04/23 04:10:32;;;;;;;25.58;23.13;;;-2.20;99.90;;;;;;5367569;26;20067;-71
2024/04/23 04:12:59;;;;;;;25.88;23.35;;;-2.20;99.90;;;;;;5340490;26;20078;-71
2024/04/23 04:15:46;;;;;;;27.98;24.08;;;-2.40;99.90;;;;;;5337961;26;20012;-71
2024/04/23 04:18:13;;;;;;;25.30;22.63;;;-2.50;99.90;;;;;;5351786;26;20913;-71
2024/04/23 04:20:40;;;;;;;27.73;24.70;;;-2.50;99.90;;;;;;5342357;26;20372;-72
2024/04/23 04:23:07;;;;;;;27.33;24.65;;;-2.60;99.90;;;;;;5348095;26;20000;-70
2024/04/23 04:25:34;;;;;;;32.05;28.75;;;-2.70;99.90;;;;;;5334869;26;20085;-71
2024/04/23 04:28:01;;;;;;;29.92;26.77;;;-2.70;99.90;;;;;;5338385;26;20122;-71
2024/04/23 04:30:31;;;;;;;30.38;27.38;;;-2.70;99.90;;;;;;5338065;26;20015;-71
2024/04/23 04:32:58;;;;;;;30.65;27.70;;;-2.70;99.90;;;;;;5355374;26;20083;-71
2024/04/23 04:35:25;;;;;;;31.50;28.67;;;-2.60;99.90;;;;;;5355584;26;20012;-71
2024/04/23 04:37:55;;;;;;;31.10;28.15;;;-2.60;99.90;;;;;;5377486;26;20595;-71
2024/04/23 04:40:22;;;;;;;33.15;30.23;;;-2.70;99.90;;;;;;5371202;26;20000;-71
2024/04/23 04:42:50;;;;;;;30.65;27.92;;;-2.60;99.90;;;;;;5374198;26;21005;-73
2024/04/23 04:45:18;;;;;;;32.97;29.65;;;-2.40;99.90;;;;;;5367839;26;20019;-71
2024/04/23 04:47:48;;;;;;;35.55;31.73;;;-2.50;99.90;;;;;;5375422;26;20486;-71
2024/04/23 04:50:19;;;;;;;41.75;36.85;;;-2.60;99.90;;;;;;5383675;26;20007;-71
2024/04/23 04:52:46;;;;;;;41.05;36.55;;;-2.50;99.90;;;;;;5367094;26;20043;-71
2024/04/23 04:55:13;;;;;;;37.75;33.90;;;-2.60;99.90;;;;;;5381310;26;20008;-71
2024/04/23 04:57:42;;;;;;;32.13;28.88;;;-2.50;99.90;;;;;;5367990;26;20012;-71
2024/04/23 05:00:09;;;;;;;30.48;27.42;;;-2.40;99.90;;;;;;5380346;26;19996;-72
2024/04/23 05:02:37;;;;;;;32.58;29.38;;;-2.30;99.90;;;;;;5375360;26;20069;-72
2024/04/23 05:05:05;;;;;;;37.58;30.33;;;-2.40;99.90;;;;;;5381927;26;20018;-72
2024/04/23 05:07:32;;;;;;;33.65;29.17;;;-2.40;99.90;;;;;;5376079;26;20022;-72
2024/04/23 05:10:00;;;;;;;33.90;30.00;;;-2.30;99.90;;;;;;5378507;26;20652;-72
2024/04/23 05:12:28;;;;;;;33.92;30.27;;;-2.40;99.90;;;;;;5392654;26;20000;-71
2024/04/23 05:14:55;;;;;;;37.05;32.05;;;-2.40;99.90;;;;;;5369272;26;20002;-72
2024/04/23 05:17:22;;;;;;;36.35;32.40;;;-2.30;99.90;;;;;;5382547;26;20032;-70
2024/04/23 05:19:49;;;;;;;37.13;32.40;;;-2.30;99.90;;;;;;5380523;26;20076;-71
2024/04/23 05:22:16;;;;;;;37.42;33.45;;;-2.30;99.90;;;;;;5389406;26;20148;-71
2024/04/23 05:24:43;;;;;;;39.95;35.13;;;-2.20;99.90;;;;;;5368970;26;20015;-70
2024/04/23 05:27:10;;;;;;;40.42;35.28;;;-2.20;99.90;;;;;;5382319;26;20007;-71
2024/04/23 05:29:40;;;;;;;38.28;34.38;;;-2.10;99.90;;;;;;5372594;26;20802;-70
2024/04/23 05:34:56;;;;;;;41.70;34.55;;;-1.80;99.90;;;;;;5373469;26;20072;-70
2024/04/23 05:37:23;;;;;;;36.10;32.22;;;-1.80;99.90;;;;;;5374742;26;20026;-72
2024/04/23 05:39:50;;;;;;;34.65;30.90;;;-1.70;99.90;;;;;;5406085;26;20148;-71
2024/04/23 05:42:18;;;;;;;33.13;29.58;;;-1.50;99.90;;;;;;5346444;26;20009;-71
2024/04/23 05:44:45;;;;;;;33.25;29.65;;;-1.20;99.90;;;;;;5356548;26;20011;-70
2024/04/23 05:47:12;;;;;;;31.20;27.83;;;-1.10;99.90;;;;;;5402634;26;20007;-72
2024/04/23 05:50:16;;;;;;;33.33;29.33;;;-1.00;99.90;;;;;;5381460;26;20009;-71
2024/04/23 05:53:48;;;;;;;33.25;29.10;;;-1.10;99.90;;;;;;5402888;26;19999;-74
2024/04/23 05:56:33;;;;;;;38.53;31.75;;;-1.00;99.90;;;;;;5380624;26;20039;-72
2024/04/23 05:59:01;;;;;;;33.10;29.73;;;-0.80;99.90;;;;;;5380068;26;20010;-73
2024/04/23 06:01:28;;;;;;;35.17;29.45;;;-0.50;99.90;;;;;;5388285;26;20705;-73
2024/04/23 06:03:55;;;;;;;32.85;29.48;;;-0.30;99.90;;;;;;5383250;26;20025;-74
2024/04/23 06:06:22;;;;;;;33.58;29.85;;;-0.20;99.90;;;;;;5437292;26;20018;-74
2024/04/23 06:08:53;;;;;;;32.83;29.42;;;0.00;99.90;;;;;;5380142;26;20006;-75
2024/04/23 06:11:20;;;;;;;32.90;28.83;;;0.10;99.90;;;;;;5372299;26;20005;-73
2024/04/23 06:13:47;;;;;;;32.78;29.45;;;0.20;99.90;;;;;;5346261;26;20674;-72
2024/04/23 06:16:15;;;;;;;34.00;30.63;;;0.30;99.90;;;;;;5379683;26;20019;-72
2024/04/23 06:18:42;;;;;;;33.88;30.38;;;0.30;99.90;;;;;;5379031;26;20004;-72
2024/04/23 06:21:13;;;;;;;34.05;30.83;;;0.30;99.90;;;;;;5383608;26;19996;-71
2024/04/23 06:23:40;;;;;;;36.28;32.80;;;0.40;99.90;;;;;;5387879;26;20003;-70
2024/04/23 06:26:07;;;;;;;34.85;31.60;;;0.40;99.90;;;;;;5355091;26;20541;-71
2024/04/23 06:28:35;;;;;;;36.08;32.42;;;0.60;99.90;;;;;;5376590;26;20081;-72
2024/04/23 06:31:02;;;;;;;35.67;32.47;;;0.80;99.90;;;;;;5381393;26;20036;-72
2024/04/23 06:33:29;;;;;;;37.03;33.88;;;1.00;99.90;;;;;;5383372;26;19999;-72
2024/04/23 06:35:57;;;;;;;33.15;30.23;;;1.40;99.90;;;;;;5380617;26;20022;-72
2024/04/23 06:38:24;;;;;;;32.38;29.42;;;1.90;99.90;;;;;;5383241;26;20165;-72
2024/04/23 06:40:51;;;;;;;33.83;30.70;;;2.20;99.90;;;;;;5396416;26;20004;-72
2024/04/23 06:43:18;;;;;;;36.92;33.88;;;2.80;99.90;;;;;;5385033;26;20513;-73
2024/04/23 06:45:45;;;;;;;38.40;35.58;;;3.10;99.90;;;;;;5377541;26;20000;-73
2024/04/23 06:48:15;;;;;;;40.50;37.20;;;3.60;99.90;;;;;;5394736;26;20014;-72
2024/04/23 06:50:43;;;;;;;40.88;37.97;;;4.10;99.90;;;;;;5386712;26;20055;-72
2024/04/23 06:53:13;;;;;;;43.25;40.00;;;4.60;99.90;;;;;;5353665;26;20008;-72
2024/04/23 06:55:40;;;;;;;43.10;40.00;;;5.20;99.90;;;;;;5383633;26;19999;-73
2024/04/23 06:58:07;;;;;;;42.97;40.05;;;5.80;99.90;;;;;;5380256;26;20003;-73
2024/04/23 07:00:35;;;;;;;42.20;38.92;;;6.30;99.90;;;;;;5392614;26;20457;-72
2024/04/23 07:03:04;;;;;;;41.88;38.63;;;6.60;99.90;;;;;;5365839;26;21507;-73
2024/04/23 07:05:31;;;;;;;40.22;37.20;;;7.00;99.90;;;;;;5380931;26;20577;-73
2024/04/23 07:07:58;;;;;;;41.83;38.83;;;7.00;99.90;;;;;;5342959;26;20012;-73
2024/04/23 07:10:26;;;;;;;41.70;38.67;;;7.00;99.90;;;;;;5350106;26;20000;-73
2024/04/23 07:12:54;;;;;;;41.92;38.92;;;7.00;99.90;;;;;;5358607;26;20007;-73
2024/04/23 07:15:21;;;;;;;39.67;36.78;;;6.90;99.90;;;;;;5343565;26;20012;-73
2024/04/23 07:17:49;;;;;;;39.67;36.88;;;6.80;99.90;;;;;;5343877;26;20000;-73
2024/04/23 07:20:16;;;;;;;41.35;38.45;;;6.80;99.90;;;;;;5360612;26;20496;-74
2024/04/23 07:22:43;;;;;;;45.72;42.72;;;7.00;99.90;;;;;;5347149;26;19997;-73
2024/04/23 07:25:10;;;;;;;46.42;43.33;;;7.40;99.90;;;;;;5402279;26;20066;-73
2024/04/23 07:27:39;;;;;;;45.33;42.33;;;7.40;99.90;;;;;;5354495;26;20008;-74
2024/04/23 07:30:06;;;;;;;43.88;40.80;;;7.70;99.90;;;;;;5352387;26;20087;-74
2024/04/23 07:32:33;;;;;;;44.53;41.30;;;7.90;99.90;;;;;;5383717;26;20067;-73
2024/04/23 07:35:01;;;;;;;46.17;43.03;;;8.10;99.90;;;;;;5376318;26;20023;-73
2024/04/23 07:37:28;;;;;;;45.20;42.15;;;8.10;99.90;;;;;;5325663;26;19999;-74
2024/04/23 07:39:55;;;;;;;42.63;39.72;;;8.10;99.90;;;;;;5385073;26;20573;-74
2024/04/23 07:42:23;;;;;;;43.60;40.65;;;8.30;99.90;;;;;;5397773;26;20043;-75
2024/04/23 07:44:50;;;;;;;47.22;44.33;;;8.40;99.90;;;;;;5371591;26;20044;-75
2024/04/23 07:47:18;;;;;;;48.50;45.20;;;8.10;99.90;;;;;;5392019;26;19998;-74
2024/04/23 07:49:46;;;;;;;50.88;47.45;;;7.50;99.90;;;;;;5385621;26;20000;-73
2024/04/23 07:52:13;;;;;;;45.55;42.42;;;7.20;99.90;;;;;;5384092;26;20004;-75
2024/04/23 07:54:40;;;;;;;41.40;38.40;;;7.20;99.90;;;;;;5356370;26;20023;-75
2024/04/23 07:57:07;;;;;;;47.33;44.25;;;7.30;99.90;;;;;;5340888;26;20021;-75
2024/04/23 07:59:34;;;;;;;46.58;43.63;;;7.30;99.90;;;;;;5377475;26;20018;-75
2024/04/23 08:02:02;;;;;;;43.00;40.10;;;6.90;99.90;;;;;;5385123;26;21231;-75
2024/04/23 08:04:30;;;;;;;38.35;35.55;;;6.70;99.90;;;;;;5388246;26;20011;-75
2024/04/23 08:06:57;;;;;;;38.63;35.85;;;6.60;99.90;;;;;;5382688;26;20381;-75
2024/04/23 08:09:25;;;;;;;38.92;36.15;;;6.90;99.90;;;;;;5382292;26;20015;-75
2024/04/23 08:11:52;;;;;;;37.90;35.10;;;7.10;99.90;;;;;;5386482;26;20007;-75
2024/04/23 08:14:22;;;;;;;39.75;36.95;;;7.00;99.90;;;;;;5393420;26;20131;-75
2024/04/23 08:16:49;;;;;;;39.72;37.03;;;7.20;99.90;;;;;;5373353;26;20098;-76
2024/04/23 08:19:17;;;;;;;36.67;34.08;;;7.40;99.90;;;;;;5358585;26;20716;-75
2024/04/23 08:21:44;;;;;;;38.70;36.00;;;7.50;99.90;;;;;;5334250;26;20035;-74
2024/04/23 08:24:15;;;;;;;39.05;36.35;;;7.60;99.90;;;;;;5362757;26;20010;-75
2024/04/23 08:26:42;;;;;;;40.22;37.53;;;7.50;99.90;;;;;;5382848;26;20748;-75
2024/04/23 08:29:09;;;;;;;41.33;38.13;;;7.30;99.90;;;;;;5404429;26;20004;-74
2024/04/23 08:31:36;;;;;;;39.15;36.35;;;7.20;99.90;;;;;;5388625;26;20308;-75
2024/04/23 08:34:03;;;;;;;41.65;38.72;;;7.10;99.90;;;;;;5387926;26;20007;-75
2024/04/23 08:36:31;;;;;;;41.33;38.42;;;7.10;99.90;;;;;;5400739;26;20033;-74
2024/04/23 08:38:58;;;;;;;44.28;41.08;;;7.30;99.90;;;;;;5372695;26;20065;-73
2024/04/23 08:41:26;;;;;;;40.47;37.65;;;7.70;99.90;;;;;;5368213;26;20391;-74
2024/04/23 08:44:08;;;;;;;41.15;37.97;;;8.00;99.90;;;;;;5348617;26;20028;-74
2024/04/23 08:46:36;;;;;;;41.38;38.58;;;8.40;99.90;;;;;;5338647;26;20005;-74
2024/04/23 08:49:04;;;;;;;43.45;40.53;;;8.30;99.90;;;;;;5343264;26;20032;-74
2024/04/23 08:51:33;;;;;;;42.22;39.40;;;8.30;99.90;;;;;;5367178;26;20012;-73
2024/04/23 08:54:01;;;;;;;41.83;39.13;;;8.50;99.90;;;;;;5388840;26;19999;-72
2024/04/23 08:56:33;;;;;;;49.80;46.58;;;8.40;99.90;;;;;;5352846;26;19999;-75
2024/04/23 08:59:04;;;;;;;51.10;47.65;;;7.70;99.90;;;;;;5381653;26;20003;-74
2024/04/23 09:01:38;;;;;;;46.72;43.55;;;7.50;99.90;;;;;;5391525;26;20014;-74
2024/04/23 09:04:05;;;;;;;45.67;42.50;;;8.30;99.90;;;;;;5348731;26;20016;-73
2024/04/23 09:06:36;;;;;;;47.03;43.88;;;9.00;99.90;;;;;;5399081;26;20246;-74
2024/04/23 09:09:04;;;;;;;52.58;49.28;;;8.70;99.90;;;;;;5348835;26;20562;-74
2024/04/23 09:11:32;;;;;;;51.60;48.40;;;8.40;99.90;;;;;;5407411;26;20015;-74
2024/04/23 09:14:01;;;;;;;49.40;46.28;;;8.20;99.90;;;;;;5342888;26;20023;-75
2024/04/23 09:16:28;;;;;;;51.45;48.22;;;8.10;99.90;;;;;;5345893;26;20023;-74
2024/04/23 09:18:57;;;;;;;49.63;46.22;;;7.90;99.90;;;;;;5339332;26;20009;-74
2024/04/23 09:21:26;;;;;;;49.88;46.78;;;8.00;99.90;;;;;;5378729;26;20068;-75
2024/04/23 09:23:53;;;;;;;48.00;44.95;;;7.70;99.90;;;;;;5359929;26;20024;-75
2024/04/23 09:26:24;;;;;;;44.80;41.60;;;7.60;99.90;;;;;;5384952;26;20056;-75
2024/04/23 09:28:56;;;;;;;45.25;42.25;;;7.50;99.90;;;;;;5374253;26;20018;-73
2024/04/23 09:31:24;;;;;;;44.13;41.00;;;7.50;99.90;;;;;;5442038;26;20722;-75
2024/04/23 09:33:52;;;;;;;43.55;40.45;;;7.70;99.90;;;;;;5381096;26;20053;-73
2024/04/23 09:36:23;;;;;;;48.85;45.40;;;7.60;99.90;;;;;;5381646;26;19999;-75
2024/04/23 09:38:58;;;;;;;46.63;43.53;;;7.60;99.90;;;;;;5373194;26;20003;-74
2024/04/23 09:41:26;;;;;;;48.85;45.40;;;8.00;99.90;;;;;;5379356;26;20081;-75
2024/04/23 09:43:55;;;;;;;49.55;45.88;;;8.00;99.90;;;;;;5361359;26;20011;-74
2024/04/23 09:46:22;;;;;;;48.47;45.10;;;8.50;99.90;;;;;;5381274;26;20008;-74
2024/04/23 09:48:51;;;;;;;47.35;44.33;;;8.80;99.90;;;;;;5382301;26;20158;-75
2024/04/23 09:51:20;;;;;;;47.08;44.08;;;8.80;99.90;;;;;;5382240;26;20010;-75
2024/04/23 09:53:47;;;;;;;48.40;45.17;;;9.30;99.90;;;;;;5393914;26;20018;-75
2024/04/23 09:56:19;;;;;;;47.92;44.63;;;9.80;99.90;;;;;;5385721;26;21888;-74
2024/04/23 09:58:47;;;;;;;49.42;46.25;;;9.90;99.90;;;;;;5390824;26;20337;-76
2024/04/23 10:01:18;;;;;;;52.33;49.03;;;10.50;99.90;;;;;;5395330;26;20623;-75
2024/04/23 10:03:48;;;;;;;55.08;51.72;;;10.60;99.90;;;;;;5396166;26;20520;-74
2024/04/23 10:06:26;;;;;;;52.05;48.55;;;10.50;99.90;;;;;;5393316;26;20051;-76
2024/04/23 10:09:12;;;;;;;52.90;49.70;;;10.60;99.90;;;;;;5421510;26;19999;-74
2024/04/23 10:11:39;;;;;;;53.08;49.63;;;10.90;99.90;;;;;;5406200;26;20075;-76
2024/04/23 10:14:31;;;;;;;52.90;49.60;;;11.20;99.90;;;;;;5394164;26;20004;-74
2024/04/23 10:17:06;;;;;;;53.72;50.15;;;11.60;99.90;;;;;;5376011;26;21164;-71
2024/04/23 10:19:34;;;;;;;52.05;48.25;;;11.60;99.90;;;;;;5390923;26;19999;-74
2024/04/23 10:22:05;;;;;;;45.85;42.95;;;11.50;99.90;;;;;;5381844;26;20022;-72
2024/04/23 10:24:33;;;;;;;48.03;45.00;;;11.60;99.90;;;;;;5381036;26;20011;-74
2024/04/23 10:27:01;;;;;;;46.47;43.45;;;11.00;99.90;;;;;;5354361;26;20032;-76
2024/04/23 10:29:29;;;;;;;47.22;44.13;;;10.50;99.90;;;;;;5378915;26;20584;-76
2024/04/23 10:31:56;;;;;;;48.72;45.50;;;10.20;99.90;;;;;;5354271;26;20149;-76
2024/04/23 10:34:29;;;;;;;50.20;47.10;;;9.90;99.90;;;;;;5395057;26;19996;-76
2024/04/23 10:36:59;;;;;;;53.17;49.90;;;9.50;99.90;;;;;;5362623;26;20334;-76
2024/04/23 10:39:29;;;;;;;53.13;49.85;;;9.20;99.90;;;;;;5417814;26;20014;-76
2024/04/23 10:41:58;;;;;;;53.00;49.65;;;8.80;99.90;;;;;;5393367;26;20011;-75
2024/04/23 10:44:27;;;;;;;51.67;48.38;;;8.50;99.90;;;;;;5378579;26;20011;-74
2024/04/23 10:46:54;;;;;;;52.63;49.13;;;8.30;99.90;;;;;;5384331;26;20000;-76
2024/04/23 10:49:26;;;;;;;51.22;47.85;;;8.30;99.90;;;;;;5358716;26;20150;-75
2024/04/23 10:51:56;;;;;;;48.35;44.95;;;8.10;99.90;;;;;;5375439;26;20386;-75
2024/04/23 10:54:23;;;;;;;50.78;47.45;;;8.10;99.90;;;;;;5381261;26;20076;-74
2024/04/23 10:57:00;;;;;;;47.80;44.65;;;8.10;99.90;;;;;;5384443;26;20016;-75
2024/04/23 10:59:32;;;;;;;46.38;43.28;;;8.10;99.90;;;;;;5359219;26;20310;-75
2024/04/23 11:02:02;;;;;;;50.95;47.65;;;8.10;99.90;;;;;;5393939;26;20769;-73
2024/04/23 11:04:34;;;;;;;53.58;50.17;;;8.20;99.90;;;;;;5349150;26;20017;-73
2024/04/23 11:07:06;;;;;;;55.80;52.30;;;8.40;99.90;;;;;;5377190;26;20569;-75
2024/04/23 11:09:38;;;;;;;51.95;48.60;;;8.90;99.90;;;;;;5387303;26;20699;-75
2024/04/23 11:12:17;;;;;;;50.83;47.40;;;9.40;99.90;;;;;;5383631;26;20009;-75
2024/04/23 11:14:45;;;;;;;54.00;50.30;;;9.50;99.90;;;;;;5385906;26;20015;-74
2024/04/23 11:17:13;;;;;;;51.83;48.63;;;10.00;99.90;;;;;;5379833;26;20000;-75
2024/04/23 11:19:48;;;;;;;55.60;52.20;;;10.10;99.90;;;;;;5393098;26;19996;-76
2024/04/23 11:22:16;;;;;;;55.05;51.63;;;9.90;99.90;;;;;;5417039;26;20039;-74
2024/04/23 11:24:53;;;;;;;56.95;53.40;;;10.30;99.90;;;;;;5375657;26;20548;-74
2024/04/23 11:27:20;;;;;;;54.90;51.40;;;10.30;99.90;;;;;;5358955;26;20018;-73
2024/04/23 11:29:48;;;;;;;54.45;51.05;;;10.40;99.90;;;;;;5374862;26;20030;-74
2024/04/23 11:32:16;;;;;;;54.95;51.35;;;11.00;99.90;;;;;;5399662;26;20023;-76
2024/04/23 11:34:45;;;;;;;54.70;51.30;;;11.20;99.90;;;;;;5388845;26;20003;-74
2024/04/23 11:37:28;;;;;;;54.83;51.33;;;11.30;99.90;;;;;;5386627;26;20248;-72
2024/04/23 11:39:58;;;;;;;55.50;52.00;;;11.30;99.90;;;;;;5400576;26;20008;-73
2024/04/23 11:42:30;;;;;;;54.40;51.10;;;11.40;99.90;;;;;;5390392;26;20143;-75
2024/04/23 11:45:04;;;;;;;54.42;51.13;;;11.20;99.90;;;;;;5375848;26;20011;-75
2024/04/23 11:47:33;;;;;;;56.25;52.53;;;11.10;99.90;;;;;;5350796;26;20227;-75
2024/04/23 11:50:05;;;;;;;46.72;43.72;;;11.40;99.90;;;;;;5348859;26;20008;-72
2024/04/23 11:52:34;;;;;;;42.38;39.38;;;11.70;99.90;;;;;;5353709;26;20688;-75
2024/04/23 11:55:06;;;;;;;41.75;38.85;;;11.10;99.90;;;;;;5334301;26;20004;-75
2024/04/23 11:57:33;;;;;;;50.08;46.72;;;10.70;99.90;;;;;;5341054;26;20458;-72
2024/04/23 12:00:01;;;;;;;46.65;43.45;;;10.30;99.90;;;;;;5342656;26;20044;-73
2024/04/23 12:02:33;;;;;;;46.85;43.65;;;10.00;99.90;;;;;;5342309;26;20016;-75
2024/04/23 12:05:03;;;;;;;53.33;49.85;;;9.90;99.90;;;;;;5343156;26;20004;-75
2024/04/23 12:07:35;;;;;;;53.72;50.33;;;9.90;99.90;;;;;;5309139;26;21932;-75
2024/04/23 12:10:05;;;;;;;53.22;49.72;;;10.30;99.90;;;;;;5342445;26;20023;-73
2024/04/23 12:12:36;;;;;;;53.63;50.15;;;10.80;99.90;;;;;;5346315;26;20000;-75
2024/04/23 12:15:05;;;;;;;55.08;51.75;;;10.80;99.90;;;;;;5340634;26;20015;-72
2024/04/23 12:17:38;;;;;;;55.08;51.67;;;11.10;99.90;;;;;;5409828;26;20017;-73
2024/04/23 12:20:10;;;;;;;53.63;50.42;;;11.00;99.90;;;;;;5380305;26;20008;-74
2024/04/23 12:22:37;;;;;;;54.05;50.60;;;10.90;99.90;;;;;;5344365;26;20012;-74
2024/04/23 12:25:05;;;;;;;53.30;50.00;;;11.00;99.90;;;;;;5343784;26;20045;-75
2024/04/23 12:27:33;;;;;;;52.85;49.55;;;11.30;99.90;;;;;;5374200;26;20510;-75
2024/04/23 12:30:14;;;;;;;51.55;48.00;;;11.60;99.90;;;;;;5394289;26;20004;-75
2024/04/23 12:32:49;;;;;;;51.63;48.40;;;11.80;99.90;;;;;;5349121;26;20015;-74
2024/04/23 12:35:19;;;;;;;53.20;49.70;;;11.90;99.90;;;;;;5365304;26;20043;-74
2024/04/23 12:37:48;;;;;;;53.10;49.90;;;11.70;99.90;;;;;;5385684;26;20214;-75
2024/04/23 12:40:16;;;;;;;52.88;49.67;;;11.60;99.90;;;;;;5373768;26;20023;-73
2024/04/23 12:42:45;;;;;;;56.33;52.92;;;11.80;99.90;;;;;;5386803;26;20529;-75
2024/04/23 12:45:13;;;;;;;54.67;51.33;;;11.70;99.90;;;;;;5360742;26;20023;-74
2024/04/23 12:47:40;;;;;;;54.53;51.30;;;11.80;99.90;;;;;;5383777;26;20371;-73